createdAt,value
2023-02-04T00:08:08.536Z,4.31
2023-02-04T00:18:15.262Z,4.29
2023-02-04T00:28:21.605Z,4.31
2023-02-04T00:38:27.919Z,4.35
2023-02-04T00:48:35.959Z,4.33
2023-02-04T00:58:42.206Z,4.14
2023-02-04T01:08:48.526Z,4.29
2023-02-04T01:18:57.011Z,4.25
2023-02-04T01:29:03.335Z,4.25
2023-02-04T01:39:09.596Z,4.20
2023-02-04T01:49:15.983Z,4.36
2023-02-04T01:59:23.122Z,4.38
2023-02-04T02:09:30.604Z,4.19
2023-02-04T02:19:39.214Z,3.68
2023-02-04T02:29:45.641Z,3.57
2023-02-04T02:39:51.974Z,3.28
2023-02-04T02:49:58.307Z,3.08
2023-02-04T03:00:14.716Z,2.86
2023-02-04T03:10:21.091Z,2.55
2023-02-04T03:20:29.743Z,2.45
2023-02-04T03:30:36.280Z,2.37
2023-02-04T03:40:42.590Z,2.32
2023-02-04T03:50:48.919Z,2.37
2023-02-04T04:00:55.183Z,2.28
2023-02-04T04:11:01.585Z,2.19
2023-02-04T04:21:07.890Z,1.96
2023-02-04T04:31:14.389Z,1.81
2023-02-04T04:41:20.704Z,1.57
2023-02-04T04:51:27.031Z,1.64
2023-02-04T05:01:34.062Z,1.47
2023-02-04T05:11:40.407Z,1.31
2023-02-04T05:21:46.813Z,0.98
2023-02-04T05:31:53.223Z,1.30
2023-02-04T05:41:59.571Z,0.97
2023-02-04T05:52:06.604Z,1.08
2023-02-04T06:02:13.261Z,0.73
2023-02-04T06:12:19.663Z,0.70
2023-02-04T06:22:27.187Z,0.70
2023-02-04T06:32:33.493Z,0.51
2023-02-04T06:42:39.827Z,0.61
2023-02-04T06:52:47.813Z,0.56
2023-02-04T07:02:54.381Z,0.49
2023-02-04T07:13:00.783Z,0.53
2023-02-04T07:23:07.069Z,0.42
2023-02-04T07:33:13.398Z,0.97
2023-02-04T07:43:19.693Z,0.55
2023-02-04T07:53:26.062Z,0.50
2023-02-04T08:03:33.057Z,0.86
2023-02-04T08:13:39.422Z,0.65
2023-02-04T08:23:45.728Z,0.93
2023-02-04T08:33:52.044Z,0.69
2023-02-04T08:43:58.386Z,0.40
2023-02-04T08:54:04.855Z,0.74
2023-02-04T09:04:11.136Z,1.03
2023-02-04T09:14:17.479Z,1.42
2023-02-04T09:24:26.500Z,3.12
2023-02-04T09:34:32.884Z,2.08
2023-02-04T09:44:39.285Z,2.06
2023-02-04T09:54:46.286Z,2.20
2023-02-04T10:04:55.112Z,3.42
2023-02-04T10:15:05.199Z,2.19
2023-02-04T10:25:19.737Z,3.38
2023-02-04T10:35:26.650Z,2.33
2023-02-04T10:45:33.315Z,2.30
2023-02-04T10:55:39.653Z,1.90
2023-02-04T11:05:45.965Z,3.11
2023-02-04T11:16:09.403Z,3.03
2023-02-04T11:26:23.786Z,3.18
2023-02-04T11:36:30.754Z,3.32
2023-02-04T11:46:37.193Z,3.86
2023-02-04T11:56:43.775Z,3.17
2023-02-04T12:07:03.150Z,2.65
2023-02-04T12:17:20.210Z,2.61
2023-02-04T12:27:26.601Z,3.27
2023-02-04T12:37:33.315Z,2.36
2023-02-04T12:47:39.913Z,2.37
2023-02-04T12:57:46.472Z,1.89
2023-02-04T13:07:52.816Z,1.92
2023-02-04T13:17:57.183Z,2.19
2023-02-04T13:28:04.011Z,1.72
2023-02-04T13:38:10.444Z,1.65
2023-02-04T13:48:17.524Z,1.72
2023-02-04T13:58:23.872Z,1.58
2023-02-04T14:08:30.195Z,1.33
2023-02-04T14:18:36.842Z,1.44
2023-02-04T14:28:43.149Z,1.24
2023-02-04T14:38:49.661Z,1.31
2023-02-04T14:48:56.179Z,0.96
2023-02-04T14:59:02.520Z,0.90
2023-02-04T15:09:09.014Z,0.89
2023-02-04T15:19:16.146Z,0.44
2023-02-04T15:29:22.644Z,0.22
2023-02-04T15:39:29.181Z,0.07
2023-02-04T15:49:36.315Z,-0.07
2023-02-04T15:59:42.646Z,-0.25
2023-02-04T16:09:49.103Z,-0.39
2023-02-04T16:19:55.916Z,-0.20
2023-02-04T16:30:02.712Z,-0.14
2023-02-04T16:40:10.971Z,-0.10
2023-02-04T16:50:17.821Z,-0.33
2023-02-04T17:00:24.478Z,-0.29
2023-02-04T17:10:49.474Z,-0.22
2023-02-04T17:20:56.078Z,-0.22
2023-02-04T17:31:02.767Z,-0.39
2023-02-04T17:41:09.106Z,-0.33
2023-02-04T17:51:15.628Z,-0.52
2023-02-04T18:01:23.111Z,-0.55
2023-02-04T18:11:34.013Z,-0.59
2023-02-04T18:21:40.339Z,-0.44
2023-02-04T18:31:55.876Z,-0.39
2023-02-04T18:42:02.147Z,-0.35
2023-02-04T18:52:28.997Z,-0.34
2023-02-04T19:02:37.448Z,-0.23
2023-02-04T19:12:44.510Z,-0.18
2023-02-04T19:22:59.933Z,-0.25
2023-02-04T19:33:18.553Z,-0.31
2023-02-04T19:43:37.167Z,-0.33
2023-02-04T19:53:43.609Z,-0.40
2023-02-04T20:03:50.876Z,-0.68
2023-02-04T20:14:17.370Z,-0.73
2023-02-04T20:24:23.887Z,-0.77
2023-02-04T20:34:30.173Z,-0.73
2023-02-04T20:44:41.152Z,-0.68
2023-02-04T20:54:47.508Z,-0.81
2023-02-04T21:04:55.079Z,-0.82
2023-02-04T21:15:01.594Z,-0.93
2023-02-04T21:25:08.969Z,-0.78
2023-02-04T21:35:15.303Z,-0.91
2023-02-04T21:45:23.632Z,-1.11
2023-02-04T21:55:30.341Z,-1.08
2023-02-04T22:05:36.783Z,-1.30
2023-02-04T22:15:43.132Z,-1.19
2023-02-04T22:25:49.425Z,-1.26
2023-02-04T22:35:55.671Z,-1.33
2023-02-04T22:46:02.009Z,-1.40
2023-02-04T22:56:08.477Z,-1.41
2023-02-04T23:06:14.836Z,-1.30
2023-02-04T23:16:21.264Z,-1.37
2023-02-04T23:26:27.966Z,-1.34
2023-02-04T23:36:37.619Z,-1.38
2023-02-04T23:46:44.124Z,-1.18
2023-02-04T23:56:50.788Z,-1.18
